Time;durP1;ratioP1;P1;durP2;ratioP2;P2;SDS_P1;SDS_P2;PMS_P1;PMS_P2;Temp;Humidity;BMP_temperature;BMP_pressure;BME280_temperature;BME280_humidity;BME280_pressure;Samples;Min_cycle;Max_cycle;Signal;HPM_P1;HPM_P2
2023/02/08 00:01:34;;;;;;;19.83;12.15;;;-0.20;43.00;;;;;;5014381;28;20396;-72
2023/02/08 00:03:59;;;;;;;23.10;13.27;;;-0.10;45.30;;;;;;5014454;28;20389;-74
2023/02/08 00:06:25;;;;;;;18.17;11.87;;;-0.20;43.90;;;;;;5014503;28;20424;-74
2023/02/08 00:08:51;;;;;;;19.43;12.00;;;-0.40;44.40;;;;;;5014591;28;20412;-73
2023/02/08 00:11:16;;;;;;;20.63;12.20;;;-0.50;45.30;;;;;;5014625;28;20392;-74
2023/02/08 00:13:42;;;;;;;25.65;13.10;;;-0.60;46.20;;;;;;5013499;28;20395;-75
2023/02/08 00:16:08;;;;;;;19.80;11.60;;;-0.40;45.90;;;;;;5014383;28;20385;-75
2023/02/08 00:18:33;;;;;;;20.10;11.82;;;-0.30;44.30;;;;;;5014342;28;20414;-75
2023/02/08 00:20:59;;;;;;;20.80;12.48;;;-0.40;44.70;;;;;;5013668;28;20384;-73
2023/02/08 00:23:25;;;;;;;22.67;13.15;;;-0.60;45.70;;;;;;5013458;28;20424;-73
2023/02/08 00:25:50;;;;;;;20.67;12.55;;;-0.70;46.80;;;;;;5014024;28;20420;-73
2023/02/08 00:28:17;;;;;;;23.23;12.55;;;-0.70;48.30;;;;;;5013514;28;20415;-73
2023/02/08 00:30:43;;;;;;;22.77;13.43;;;-0.60;48.10;;;;;;5013655;28;20388;-72
2023/02/08 00:33:09;;;;;;;24.20;13.38;;;-0.70;49.10;;;;;;5012197;28;20971;-73
2023/02/08 00:35:35;;;;;;;20.95;13.10;;;-0.70;49.50;;;;;;5014689;28;20469;-73
2023/02/08 00:38:01;;;;;;;19.63;12.48;;;-0.60;49.20;;;;;;5014857;28;20897;-75
2023/02/08 00:40:27;;;;;;;24.03;12.93;;;-0.40;48.50;;;;;;5016934;28;20404;-73
2023/02/08 00:42:52;;;;;;;19.77;12.52;;;-0.20;46.60;;;;;;5015706;28;20393;-73
2023/02/08 00:45:19;;;;;;;21.23;12.93;;;-0.20;46.80;;;;;;5016110;28;20385;-74
2023/02/08 00:47:45;;;;;;;20.67;11.95;;;-0.40;47.30;;;;;;5014349;28;20428;-72
2023/02/08 00:50:11;;;;;;;21.07;12.57;;;-0.60;48.60;;;;;;5014891;28;20389;-73
2023/02/08 00:52:37;;;;;;;20.77;12.70;;;-0.70;50.10;;;;;;5014951;28;20388;-73
2023/02/08 00:55:03;;;;;;;18.83;11.80;;;-0.70;51.10;;;;;;5011964;28;20393;-72
2023/02/08 00:57:31;;;;;;;21.50;12.43;;;-0.70;50.60;;;;;;5012895;28;20397;-74
2023/02/08 00:59:57;;;;;;;20.23;12.27;;;-0.70;49.60;;;;;;5013205;28;20483;-74
2023/02/08 01:02:22;;;;;;;22.23;12.43;;;-0.80;50.20;;;;;;5012969;28;20419;-74
2023/02/08 01:04:48;;;;;;;23.97;13.13;;;-0.70;51.20;;;;;;5011668;28;20872;-71
2023/02/08 01:07:13;;;;;;;22.05;13.05;;;-0.80;50.40;;;;;;5011673;28;20443;-71
2023/02/08 01:09:39;;;;;;;20.23;11.90;;;-0.90;51.30;;;;;;5012855;28;20412;-73
2023/02/08 01:12:05;;;;;;;22.33;12.60;;;-0.60;50.40;;;;;;5011329;28;20770;-71
2023/02/08 01:14:30;;;;;;;18.30;12.10;;;-0.40;48.40;;;;;;5012585;28;20396;-71
2023/02/08 01:16:56;;;;;;;18.47;12.10;;;-0.60;47.80;;;;;;5012955;28;20381;-72
2023/02/08 01:19:21;;;;;;;19.35;12.10;;;-0.70;47.60;;;;;;5012879;28;20743;-72
2023/02/08 01:21:48;;;;;;;19.17;11.85;;;-0.80;48.70;;;;;;5013477;28;20435;-72
2023/02/08 01:24:13;;;;;;;19.83;12.40;;;-0.70;50.40;;;;;;5012894;28;20865;-72
2023/02/08 01:26:39;;;;;;;17.97;11.20;;;-0.60;50.80;;;;;;5012783;28;20431;-73
2023/02/08 01:29:05;;;;;;;20.90;12.38;;;-0.30;49.20;;;;;;5012926;28;20440;-74
2023/02/08 01:31:34;;;;;;;20.63;13.00;;;0.00;45.90;;;;;;5012056;28;20488;-73
2023/02/08 01:34:00;;;;;;;20.23;12.30;;;-0.10;47.20;;;;;;5014501;28;20469;-74
2023/02/08 01:36:27;;;;;;;20.58;12.63;;;-0.40;48.30;;;;;;5013761;28;20472;-74
2023/02/08 01:38:53;;;;;;;17.93;11.63;;;-0.50;49.50;;;;;;5012311;28;20396;-71
2023/02/08 01:41:23;;;;;;;24.05;12.77;;;-0.50;49.90;;;;;;5012509;28;20380;-73
2023/02/08 01:44:16;;;;;;;20.20;11.63;;;-0.40;49.60;;;;;;5012787;28;20431;-73
2023/02/08 01:46:44;;;;;;;22.45;12.20;;;-0.40;49.80;;;;;;5012231;28;20383;-73
2023/02/08 01:49:29;;;;;;;18.83;11.60;;;-0.40;50.00;;;;;;5010857;28;20389;-72
2023/02/08 01:52:19;;;;;;;16.48;11.38;;;-0.40;50.00;;;;;;5012585;28;20468;-74
2023/02/08 01:55:09;;;;;;;17.45;10.90;;;-0.20;48.60;;;;;;5012560;28;20388;-71
2023/02/08 01:57:35;;;;;;;16.73;10.73;;;-0.10;47.80;;;;;;5013340;28;20478;-75
2023/02/08 02:00:10;;;;;;;17.02;10.50;;;-0.10;45.00;;;;;;5013582;28;20392;-73
2023/02/08 02:02:37;;;;;;;17.50;10.10;;;0.00;44.10;;;;;;5013106;28;20403;-76
2023/02/08 02:05:03;;;;;;;19.90;11.35;;;0.00;43.60;;;;;;5013772;28;20797;-71
2023/02/08 02:07:29;;;;;;;14.45;9.70;;;0.10;43.10;;;;;;5015400;28;20409;-74
2023/02/08 02:10:05;;;;;;;15.52;9.98;;;0.10;41.70;;;;;;5016174;28;20437;-72
2023/02/08 02:12:31;;;;;;;17.33;10.20;;;0.10;40.60;;;;;;5013401;28;20392;-73
2023/02/08 02:14:58;;;;;;;20.13;11.30;;;0.20;39.60;;;;;;5016756;28;20396;-73
2023/02/08 02:17:24;;;;;;;19.90;10.30;;;0.20;40.10;;;;;;5015869;28;20384;-73
2023/02/08 02:20:17;;;;;;;15.88;10.68;;;0.30;39.80;;;;;;5014145;28;20399;-74
2023/02/08 02:23:01;;;;;;;17.30;10.93;;;0.20;40.00;;;;;;5015997;28;20384;-71
2023/02/08 02:25:36;;;;;;;19.80;10.57;;;0.40;40.90;;;;;;5026355;28;20389;-74
2023/02/08 02:28:35;;;;;;;16.60;10.40;;;0.30;38.90;;;;;;5022856;28;20423;-74
2023/02/08 02:31:22;;;;;;;15.90;10.60;;;0.30;39.50;;;;;;5019868;28;20411;-74
2023/02/08 02:33:57;;;;;;;15.63;10.02;;;0.20;38.80;;;;;;5018688;28;20384;-74
2023/02/08 02:36:34;;;;;;;16.27;11.10;;;0.20;39.30;;;;;;5016981;28;20380;-74
2023/02/08 02:39:17;;;;;;;16.42;10.57;;;0.20;41.00;;;;;;5014151;28;20389;-73
2023/02/08 02:44:53;;;;;;;44.10;12.93;;;0.10;40.60;;;;;;5011512;28;20396;-73
2023/02/08 02:47:47;;;;;;;15.30;9.60;;;0.10;39.70;;;;;;5010952;28;20408;-70
2023/02/08 02:50:40;;;;;;;15.82;10.00;;;0.20;38.90;;;;;;5010973;28;20381;-71
2023/02/08 02:53:16;;;;;;;18.23;10.65;;;0.20;38.10;;;;;;5011043;28;20413;-74
2023/02/08 02:55:46;;;;;;;17.00;10.25;;;0.30;40.60;;;;;;5011350;28;20388;-72
2023/02/08 02:58:15;;;;;;;16.40;9.57;;;0.20;39.60;;;;;;5014513;28;20401;-72
2023/02/08 03:00:41;;;;;;;17.33;10.20;;;0.10;39.60;;;;;;5014675;28;20790;-72
2023/02/08 03:03:20;;;;;;;17.20;10.00;;;0.10;38.60;;;;;;5014355;28;20519;-71
2023/02/08 03:05:46;;;;;;;16.35;9.60;;;0.30;37.50;;;;;;5014545;28;20723;-70
2023/02/08 03:08:36;;;;;;;15.35;9.55;;;0.20;37.90;;;;;;5014510;28;20890;-75
2023/02/08 03:11:10;;;;;;;15.18;9.82;;;0.30;36.30;;;;;;5013092;28;20468;-71
2023/02/08 03:14:04;;;;;;;15.77;9.50;;;0.40;36.50;;;;;;5014675;28;20392;-72
2023/02/08 03:16:48;;;;;;;15.02;9.55;;;0.50;37.60;;;;;;5014435;28;20419;-72
2023/02/08 03:19:51;;;;;;;14.25;9.45;;;0.50;36.40;;;;;;5014561;28;20385;-72
2023/02/08 03:22:42;;;;;;;16.10;9.70;;;0.50;36.20;;;;;;5012532;28;20782;-72
2023/02/08 03:25:24;;;;;;;14.65;8.80;;;0.50;37.20;;;;;;5014851;28;20385;-72
2023/02/08 03:28:31;;;;;;;13.77;9.40;;;0.50;35.40;;;;;;5016686;28;20448;-71
2023/02/08 03:31:09;;;;;;;15.88;9.45;;;0.50;35.00;;;;;;4976092;28;20388;-70
2023/02/08 03:34:11;;;;;;;16.25;9.57;;;0.50;34.50;;;;;;5011407;28;20464;-73
2023/02/08 03:36:45;;;;;;;15.95;8.82;;;0.40;34.50;;;;;;5012807;28;20395;-74
2023/02/08 03:39:15;;;;;;;13.15;8.73;;;0.40;34.30;;;;;;5012760;28;20714;-73
2023/02/08 03:41:45;;;;;;;13.65;8.60;;;0.30;34.70;;;;;;5013760;28;20393;-70
2023/02/08 03:44:26;;;;;;;15.52;9.02;;;0.20;35.30;;;;;;5013933;28;20906;-73
2023/02/08 03:46:57;;;;;;;13.98;8.93;;;0.30;35.20;;;;;;5013914;28;20392;-72
2023/02/08 03:49:29;;;;;;;15.15;9.05;;;0.20;34.50;;;;;;5013969;28;20396;-71
2023/02/08 03:51:58;;;;;;;16.08;9.07;;;0.20;35.00;;;;;;5013606;28;20381;-71
2023/02/08 03:54:29;;;;;;;14.00;8.80;;;0.10;35.20;;;;;;5014358;28;20746;-74
2023/02/08 03:57:06;;;;;;;16.42;8.88;;;0.00;35.30;;;;;;5015051;28;20381;-72
2023/02/08 03:59:37;;;;;;;20.50;9.47;;;-0.10;35.70;;;;;;5014755;28;20385;-72
2023/02/08 04:02:06;;;;;;;13.82;8.90;;;-0.10;36.00;;;;;;5014254;28;20423;-74
2023/02/08 04:04:41;;;;;;;14.45;9.20;;;-0.10;36.40;;;;;;5014275;28;20394;-72
2023/02/08 04:07:07;;;;;;;13.68;8.90;;;-0.20;36.10;;;;;;5013261;28;20870;-70
2023/02/08 04:09:33;;;;;;;15.38;8.50;;;-0.20;35.90;;;;;;5013057;28;20845;-70
2023/02/08 04:11:58;;;;;;;12.83;8.90;;;-0.20;36.20;;;;;;5012864;28;20468;-72
2023/02/08 04:14:24;;;;;;;18.50;9.30;;;-0.20;35.90;;;;;;5012974;28;20385;-71
2023/02/08 04:16:50;;;;;;;16.40;9.18;;;-0.10;36.30;;;;;;5013229;28;20467;-73
2023/02/08 04:19:16;;;;;;;15.77;8.90;;;-0.20;36.90;;;;;;5011688;28;20393;-73
2023/02/08 04:21:41;;;;;;;18.17;9.93;;;-0.20;36.80;;;;;;5012532;28;20388;-71
2023/02/08 04:24:07;;;;;;;13.10;8.60;;;-0.20;36.50;;;;;;5012898;28;20578;-72
2023/02/08 04:26:33;;;;;;;17.43;9.60;;;-0.30;36.80;;;;;;5013125;28;20862;-71
2023/02/08 04:28:59;;;;;;;13.95;9.13;;;-0.30;37.10;;;;;;5013014;28;20416;-72
2023/02/08 04:31:25;;;;;;;13.60;9.40;;;-0.20;36.70;;;;;;5012130;28;20392;-71
2023/02/08 04:33:50;;;;;;;22.67;9.90;;;-0.30;36.10;;;;;;5016383;28;20435;-72
2023/02/08 04:36:16;;;;;;;16.90;8.73;;;-0.40;36.40;;;;;;5016255;28;20467;-73
2023/02/08 04:38:42;;;;;;;15.10;9.75;;;-0.50;36.80;;;;;;5015208;28;20393;-73
2023/02/08 04:41:07;;;;;;;16.02;9.50;;;-0.50;37.40;;;;;;5012596;28;20395;-71
2023/02/08 04:43:33;;;;;;;23.65;10.55;;;-0.40;37.10;;;;;;5012571;28;20392;-72
2023/02/08 04:45:58;;;;;;;18.90;9.50;;;-0.40;37.50;;;;;;5012663;28;20496;-72
2023/02/08 04:48:24;;;;;;;14.50;9.10;;;-0.40;37.40;;;;;;5012016;28;20416;-72
2023/02/08 04:50:49;;;;;;;13.50;8.70;;;-0.50;37.50;;;;;;5012895;28;20885;-71
2023/02/08 04:53:15;;;;;;;14.63;9.00;;;-0.60;37.40;;;;;;5012657;28;20381;-72
2023/02/08 04:55:40;;;;;;;15.02;8.70;;;-0.60;37.40;;;;;;5018229;28;20411;-74
2023/02/08 04:58:06;;;;;;;13.90;8.93;;;-0.60;37.30;;;;;;5023504;28;20404;-73
2023/02/08 05:00:31;;;;;;;19.87;9.70;;;-0.70;37.50;;;;;;5021422;28;20928;-72
2023/02/08 05:02:58;;;;;;;17.87;10.00;;;-0.70;37.80;;;;;;5011611;28;20408;-73
2023/02/08 05:05:24;;;;;;;16.23;9.00;;;-0.80;38.00;;;;;;5011615;28;20511;-72
2023/02/08 05:07:50;;;;;;;15.02;8.98;;;-0.80;37.80;;;;;;5011317;28;20421;-76
2023/02/08 05:10:17;;;;;;;17.88;9.93;;;-0.70;37.80;;;;;;5012623;28;20381;-71
2023/02/08 05:12:42;;;;;;;21.23;10.35;;;-0.60;37.70;;;;;;5011464;28;20428;-74
2023/02/08 05:15:08;;;;;;;19.07;9.63;;;-0.70;38.00;;;;;;5013361;28;20414;-73
2023/02/08 05:17:34;;;;;;;12.45;8.60;;;-0.60;39.20;;;;;;5011977;28;20399;-73
2023/02/08 05:19:59;;;;;;;15.87;9.53;;;-0.70;38.10;;;;;;5011983;28;20464;-71
2023/02/08 05:22:25;;;;;;;18.20;10.00;;;-0.80;38.60;;;;;;5011734;28;20419;-69
2023/02/08 05:24:50;;;;;;;23.02;11.10;;;-0.90;40.30;;;;;;5011646;28;20404;-70
2023/02/08 05:27:16;;;;;;;16.70;9.85;;;-0.80;41.70;;;;;;5011346;28;20444;-72
2023/02/08 05:29:42;;;;;;;16.97;10.73;;;-0.80;40.30;;;;;;5012082;28;20499;-72
2023/02/08 05:32:07;;;;;;;18.00;10.60;;;-0.90;41.10;;;;;;5012351;28;20385;-74
2023/02/08 05:34:33;;;;;;;17.83;10.30;;;-0.90;41.60;;;;;;5013096;28;20397;-72
2023/02/08 05:36:58;;;;;;;20.98;11.10;;;-0.90;42.80;;;;;;5012001;28;20893;-72
2023/02/08 05:39:24;;;;;;;25.38;11.55;;;-1.00;42.70;;;;;;5011958;28;20385;-73
2023/02/08 05:41:49;;;;;;;16.90;10.63;;;-1.10;43.10;;;;;;5011606;28;20385;-75
2023/02/08 05:44:15;;;;;;;24.80;12.57;;;-1.10;43.50;;;;;;5011444;28;20790;-72
2023/02/08 05:46:40;;;;;;;25.60;13.57;;;-1.10;44.20;;;;;;5011842;28;20420;-74
2023/02/08 05:49:07;;;;;;;22.42;11.90;;;-1.20;44.90;;;;;;5011870;28;20460;-72
2023/02/08 05:51:32;;;;;;;24.47;12.50;;;-1.20;45.90;;;;;;5011613;28;20773;-72
2023/02/08 05:53:58;;;;;;;24.45;13.18;;;-1.10;46.40;;;;;;5012164;28;20389;-74
2023/02/08 05:56:23;;;;;;;23.15;11.23;;;-0.90;46.80;;;;;;5010884;28;20381;-71
2023/02/08 05:58:49;;;;;;;19.87;11.10;;;-0.90;44.90;;;;;;5010601;28;20404;-73
2023/02/08 06:01:15;;;;;;;26.37;11.80;;;-1.10;45.30;;;;;;5012206;28;20385;-74
2023/02/08 06:03:41;;;;;;;22.20;11.80;;;-1.00;45.40;;;;;;5012413;28;20384;-73
2023/02/08 06:06:09;;;;;;;21.98;11.45;;;-0.70;43.10;;;;;;5012057;28;20392;-74
2023/02/08 06:08:35;;;;;;;21.27;11.23;;;-0.40;40.70;;;;;;5012169;28;20519;-73
2023/02/08 06:11:01;;;;;;;20.03;11.50;;;-0.20;39.00;;;;;;5011663;28;20388;-72
2023/02/08 06:13:28;;;;;;;19.47;11.67;;;-0.20;38.00;;;;;;5010607;28;20764;-74
2023/02/08 06:15:54;;;;;;;20.40;11.25;;;-0.50;39.10;;;;;;5028886;28;20381;-72
2023/02/08 06:18:19;;;;;;;26.85;12.40;;;-0.80;41.20;;;;;;5030216;28;20479;-74
2023/02/08 06:20:45;;;;;;;18.65;10.80;;;-1.10;43.50;;;;;;5014389;28;20766;-74
2023/02/08 06:23:10;;;;;;;21.73;11.60;;;-1.30;45.50;;;;;;5014474;28;20396;-74
2023/02/08 06:25:36;;;;;;;25.63;12.43;;;-1.40;46.80;;;;;;5014981;28;20472;-74
2023/02/08 06:28:02;;;;;;;265.67;40.00;;;-1.20;47.20;;;;;;5015779;28;20435;-73
2023/02/08 06:30:28;;;;;;;43.13;14.67;;;-0.80;43.10;;;;;;5014703;28;20882;-74
2023/02/08 06:32:53;;;;;;;26.00;12.27;;;-0.40;40.40;;;;;;5017263;28;20389;-73
2023/02/08 06:35:19;;;;;;;29.10;13.07;;;-0.20;38.60;;;;;;5018194;28;20450;-74
2023/02/08 06:37:44;;;;;;;40.37;16.00;;;-0.40;38.60;;;;;;5018552;28;20472;-74
2023/02/08 06:40:10;;;;;;;37.00;15.70;;;-0.70;43.20;;;;;;5018884;28;20416;-73
2023/02/08 06:42:36;;;;;;;34.42;15.23;;;-0.80;45.90;;;;;;5019360;28;20476;-74
2023/02/08 06:45:01;;;;;;;37.55;13.75;;;-1.00;47.20;;;;;;5018700;28;20389;-74
2023/02/08 06:47:27;;;;;;;31.50;13.90;;;-1.10;48.70;;;;;;5018170;28;20516;-75
2023/02/08 06:49:53;;;;;;;27.00;12.50;;;-1.00;50.20;;;;;;5019774;28;20400;-73
2023/02/08 06:52:19;;;;;;;23.37;11.87;;;-1.10;49.40;;;;;;5019448;28;20480;-74
2023/02/08 06:54:45;;;;;;;24.90;12.43;;;-1.00;48.50;;;;;;5019582;28;20388;-73
2023/02/08 06:57:11;;;;;;;23.35;12.52;;;-1.10;48.00;;;;;;5033803;28;20470;-73
2023/02/08 06:59:38;;;;;;;23.13;12.10;;;-1.10;49.40;;;;;;5019039;28;20373;-74
2023/02/08 07:02:04;;;;;;;26.48;12.90;;;-1.30;50.10;;;;;;5019317;28;20776;-72
2023/02/08 07:04:30;;;;;;;24.27;13.67;;;-1.30;51.10;;;;;;5016247;28;20408;-74
2023/02/08 07:06:55;;;;;;;23.13;12.88;;;-1.40;52.30;;;;;;5016236;28;20388;-72
2023/02/08 07:09:21;;;;;;;24.10;13.13;;;-1.40;53.50;;;;;;5016254;28;20805;-73
2023/02/08 07:11:46;;;;;;;24.30;11.85;;;-1.50;54.00;;;;;;5031435;28;20928;-72
2023/02/08 07:14:14;;;;;;;18.40;12.30;;;-1.50;54.10;;;;;;5016142;28;20384;-73
2023/02/08 07:16:40;;;;;;;30.17;13.13;;;-1.50;54.50;;;;;;5015567;28;20754;-73
2023/02/08 07:19:06;;;;;;;140.88;68.97;;;-1.40;54.00;;;;;;5016658;28;20762;-72
2023/02/08 07:21:32;;;;;;;61.00;29.40;;;-1.00;55.30;;;;;;5019883;28;20750;-73
2023/02/08 07:23:57;;;;;;;39.85;21.33;;;-0.40;55.90;;;;;;5020776;28;20781;-73
2023/02/08 07:26:23;;;;;;;26.50;15.33;;;-0.30;53.30;;;;;;5019060;28;20385;-73
2023/02/08 07:28:48;;;;;;;27.47;14.97;;;-0.30;50.60;;;;;;5019021;28;20404;-73
2023/02/08 07:31:16;;;;;;;29.73;14.63;;;-0.40;51.00;;;;;;5025099;28;20732;-72
2023/02/08 07:33:42;;;;;;;33.95;16.77;;;-0.50;50.70;;;;;;5025887;28;20395;-75
2023/02/08 07:36:09;;;;;;;36.92;19.52;;;-0.50;53.80;;;;;;5017094;28;20432;-73
2023/02/08 07:38:35;;;;;;;50.85;26.40;;;-0.40;54.20;;;;;;5015398;28;20400;-73
2023/02/08 07:41:10;;;;;;;31.63;16.90;;;-0.20;54.30;;;;;;5014713;28;20442;-72
2023/02/08 07:43:38;;;;;;;25.00;14.18;;;-0.10;48.70;;;;;;5013876;28;20399;-72
2023/02/08 07:46:09;;;;;;;26.00;14.07;;;0.00;47.50;;;;;;5014690;28;20389;-73
2023/02/08 07:48:35;;;;;;;27.80;12.50;;;0.20;46.70;;;;;;5029156;28;20938;-72
2023/02/08 07:51:01;;;;;;;53.00;29.02;;;0.20;43.40;;;;;;5014051;28;20381;-75
2023/02/08 07:53:27;;;;;;;37.35;18.58;;;0.50;46.00;;;;;;5013088;28;20388;-74
2023/02/08 07:55:53;;;;;;;35.97;18.85;;;0.70;40.30;;;;;;5018418;28;20886;-74
2023/02/08 07:58:18;;;;;;;25.30;15.40;;;0.90;39.40;;;;;;5018734;28;20451;-75
2023/02/08 08:00:44;;;;;;;16.30;10.30;;;1.10;40.20;;;;;;5016510;28;20727;-75
2023/02/08 08:03:09;;;;;;;23.77;12.00;;;1.00;35.30;;;;;;5017052;28;20479;-74
2023/02/08 08:05:35;;;;;;;17.08;10.60;;;0.80;34.90;;;;;;5021916;28;20404;-71
2023/02/08 08:08:01;;;;;;;17.58;10.55;;;0.70;35.40;;;;;;5020543;28;20416;-75
2023/02/08 08:10:26;;;;;;;18.80;11.10;;;0.70;35.20;;;;;;5019434;28;20515;-76
2023/02/08 08:12:52;;;;;;;19.57;10.60;;;0.70;33.60;;;;;;5023678;28;20400;-75
2023/02/08 08:15:17;;;;;;;18.53;9.97;;;0.70;32.60;;;;;;5022347;28;20393;-72
2023/02/08 08:17:43;;;;;;;19.75;11.10;;;0.70;32.80;;;;;;5020210;28;20543;-75
2023/02/08 08:20:10;;;;;;;20.13;10.80;;;0.80;32.70;;;;;;5017970;28;20401;-75
2023/02/08 08:22:35;;;;;;;21.60;10.43;;;0.90;31.70;;;;;;5013817;28;20416;-76
2023/02/08 08:25:01;;;;;;;19.25;10.40;;;0.90;31.30;;;;;;5013865;28;20389;-75
2023/02/08 08:27:26;;;;;;;18.20;10.30;;;1.00;31.10;;;;;;5011949;28;20455;-74
2023/02/08 08:29:52;;;;;;;17.57;10.13;;;1.10;29.60;;;;;;5013938;28;21023;-75
2023/02/08 08:32:18;;;;;;;25.10;12.50;;;1.40;30.60;;;;;;5014119;28;20465;-75
2023/02/08 08:34:43;;;;;;;18.23;10.70;;;1.50;29.40;;;;;;5013857;28;20387;-77
2023/02/08 08:37:11;;;;;;;16.00;9.30;;;1.80;31.10;;;;;;5013933;28;20419;-76
2023/02/08 08:39:37;;;;;;;22.85;10.68;;;1.90;29.00;;;;;;5013730;28;20425;-75
2023/02/08 08:42:03;;;;;;;19.70;10.20;;;2.00;27.80;;;;;;5017269;28;20388;-75
2023/02/08 08:44:29;;;;;;;16.05;9.88;;;1.90;27.40;;;;;;5020437;28;20507;-77
2023/02/08 08:46:56;;;;;;;19.58;9.77;;;2.00;26.10;;;;;;5020120;28;20411;-75
2023/02/08 08:49:23;;;;;;;19.15;10.50;;;2.00;25.90;;;;;;5033195;28;20468;-76
2023/02/08 08:51:48;;;;;;;18.48;11.20;;;2.00;25.40;;;;;;5017018;28;20377;-75
2023/02/08 08:54:14;;;;;;;20.05;10.27;;;2.20;25.60;;;;;;5030949;28;20407;-76
2023/02/08 08:56:40;;;;;;;19.48;11.05;;;2.30;24.70;;;;;;5016345;28;20385;-76
2023/02/08 08:59:05;;;;;;;21.20;11.13;;;2.40;23.50;;;;;;5013103;28;20743;-76
2023/02/08 09:01:31;;;;;;;17.30;10.57;;;2.50;23.30;;;;;;5013522;28;20874;-73
2023/02/08 09:03:56;;;;;;;21.90;10.70;;;2.60;22.80;;;;;;5013432;28;20436;-76
2023/02/08 09:06:22;;;;;;;20.07;11.40;;;2.60;22.70;;;;;;5013386;28;20404;-74
2023/02/08 09:08:47;;;;;;;24.25;11.60;;;2.70;21.70;;;;;;5012963;28;20469;-74
2023/02/08 09:11:14;;;;;;;21.35;11.57;;;2.80;22.90;;;;;;5013147;28;20428;-74
2023/02/08 09:13:41;;;;;;;20.10;11.33;;;3.00;23.10;;;;;;5013034;28;20443;-75
2023/02/08 09:16:13;;;;;;;18.15;9.90;;;3.40;24.10;;;;;;5029011;28;20750;-74
2023/02/08 09:18:39;;;;;;;16.97;10.70;;;3.40;20.70;;;;;;5013841;28;20395;-74
2023/02/08 09:21:07;;;;;;;16.27;10.00;;;3.40;21.20;;;;;;5012514;28;20392;-72
2023/02/08 09:23:33;;;;;;;23.03;11.30;;;3.40;20.90;;;;;;5014437;28;20413;-75
2023/02/08 09:26:01;;;;;;;17.90;9.40;;;3.40;20.70;;;;;;5013026;28;20458;-75
2023/02/08 09:28:27;;;;;;;14.93;10.00;;;3.50;20.80;;;;;;5015107;28;20754;-75
2023/02/08 09:30:52;;;;;;;15.40;9.70;;;3.60;20.10;;;;;;5012939;28;20392;-73
2023/02/08 09:33:18;;;;;;;18.05;9.40;;;3.80;18.70;;;;;;5012659;28;20472;-76
2023/02/08 09:35:43;;;;;;;17.92;10.07;;;3.80;18.60;;;;;;5012141;28;20393;-72
2023/02/08 09:38:09;;;;;;;17.98;10.50;;;4.00;18.60;;;;;;5012553;28;20454;-76
2023/02/08 09:40:44;;;;;;;21.33;10.00;;;4.00;18.30;;;;;;5012978;28;20385;-74
2023/02/08 09:43:21;;;;;;;16.58;10.23;;;4.00;17.80;;;;;;5011718;28;20420;-75
2023/02/08 09:46:13;;;;;;;19.50;10.05;;;4.00;17.40;;;;;;5015680;28;20431;-75
2023/02/08 09:48:39;;;;;;;19.05;10.27;;;4.10;17.90;;;;;;5014777;28;20424;-73
2023/02/08 09:51:28;;;;;;;34.13;16.90;;;4.10;18.30;;;;;;5023840;28;20435;-74
2023/02/08 09:54:11;;;;;;;17.40;10.13;;;4.10;18.20;;;;;;5023277;28;20381;-74
2023/02/08 09:56:40;;;;;;;18.40;9.77;;;4.30;17.80;;;;;;5017113;28;20762;-76
2023/02/08 09:59:14;;;;;;;17.55;9.52;;;4.30;17.10;;;;;;5016332;28;20413;-73
2023/02/08 10:01:39;;;;;;;16.20;9.07;;;4.40;16.70;;;;;;5020420;28;20460;-73
2023/02/08 10:04:13;;;;;;;16.17;9.40;;;4.50;16.00;;;;;;5022058;28;20420;-76
2023/02/08 10:06:39;;;;;;;22.27;9.80;;;4.50;15.90;;;;;;5013075;28;20384;-75
2023/02/08 10:09:12;;;;;;;18.08;9.50;;;4.60;16.40;;;;;;5014796;28;20412;-74
2023/02/08 10:11:56;;;;;;;18.95;9.00;;;4.70;16.40;;;;;;5026690;28;20950;-75
2023/02/08 10:14:40;;;;;;;17.15;9.68;;;4.80;16.90;;;;;;5011903;28;20409;-74
2023/02/08 10:17:14;;;;;;;17.90;9.25;;;4.80;16.10;;;;;;5026303;28;20400;-74
2023/02/08 10:19:58;;;;;;;17.98;9.57;;;4.90;15.60;;;;;;5012154;28;20395;-74
2023/02/08 10:22:27;;;;;;;13.73;8.50;;;5.00;15.70;;;;;;5011229;28;20833;-73
2023/02/08 10:25:23;;;;;;;19.57;9.20;;;5.00;14.60;;;;;;5011883;28;20420;-73
2023/02/08 10:28:25;;;;;;;15.13;8.27;;;5.20;15.20;;;;;;5026252;28;20417;-75
2023/02/08 10:31:21;;;;;;;11.68;7.90;;;5.30;13.90;;;;;;5011287;28;20478;-74
2023/02/08 10:33:47;;;;;;;14.40;7.65;;;5.40;12.00;;;;;;4970123;28;20389;-74
2023/02/08 10:36:19;;;;;;;14.00;7.60;;;5.50;13.50;;;;;;5011195;28;20384;-75
2023/02/08 10:38:48;;;;;;;14.52;8.70;;;5.50;12.20;;;;;;4993361;28;20401;-74
2023/02/08 10:41:32;;;;;;;16.75;9.15;;;5.60;13.50;;;;;;5011479;28;20388;-75
2023/02/08 10:44:27;;;;;;;12.15;7.00;;;5.70;12.20;;;;;;5010779;28;20400;-76
2023/02/08 10:47:11;;;;;;;12.40;7.82;;;5.70;9.50;;;;;;4981605;28;20764;-74
2023/02/08 10:49:55;;;;;;;12.55;7.60;;;5.80;9.90;;;;;;5012040;28;20384;-74
2023/02/08 10:52:20;;;;;;;13.82;7.68;;;5.80;10.60;;;;;;5011263;28;20385;-75
2023/02/08 10:54:46;;;;;;;13.53;7.10;;;5.80;10.00;;;;;;5010656;28;20801;-75
2023/02/08 10:57:22;;;;;;;11.80;7.10;;;5.80;9.30;;;;;;5025919;28;20385;-73
2023/02/08 10:59:57;;;;;;;12.07;7.25;;;5.90;9.80;;;;;;5010890;28;20431;-73
2023/02/08 11:02:26;;;;;;;11.50;7.07;;;6.10;9.70;;;;;;5010718;28;20711;-75
2023/02/08 11:05:08;;;;;;;12.18;6.63;;;6.30;11.60;;;;;;5011998;28;20481;-73
2023/02/08 11:07:34;;;;;;;14.63;6.40;;;6.30;8.40;;;;;;5010023;28;20483;-73
2023/02/08 11:10:18;;;;;;;10.95;6.68;;;6.40;8.40;;;;;;5013390;28;20416;-74
2023/02/08 11:12:56;;;;;;;14.20;7.50;;;6.50;8.30;;;;;;5011912;28;20805;-73
2023/02/08 11:15:44;;;;;;;10.68;6.22;;;6.80;9.60;;;;;;5010206;28;20400;-75
2023/02/08 11:18:33;;;;;;;9.52;6.82;;;6.90;8.30;;;;;;5028321;28;20459;-74
2023/02/08 11:21:02;;;;;;;13.30;7.60;;;6.70;7.50;;;;;;5014463;28;20384;-73
2023/02/08 11:23:33;;;;;;;11.90;6.70;;;6.70;8.50;;;;;;5015161;28;20396;-75
2023/02/08 11:26:18;;;;;;;9.30;6.50;;;6.80;8.50;;;;;;5016516;28;20827;-76
2023/02/08 11:28:56;;;;;;;12.18;6.72;;;6.90;6.20;;;;;;5016249;28;20438;-74
2023/02/08 11:31:22;;;;;;;9.20;6.30;;;7.00;8.70;;;;;;5017567;28;20422;-73
2023/02/08 11:33:58;;;;;;;12.53;6.03;;;7.00;7.20;;;;;;5022858;28;20437;-74
2023/02/08 11:36:24;;;;;;;9.50;5.47;;;7.00;5.40;;;;;;5022924;28;20422;-74
2023/02/08 11:38:50;;;;;;;14.98;7.95;;;6.90;5.00;;;;;;5016504;28;20746;-75
2023/02/08 11:41:19;;;;;;;9.53;6.00;;;7.00;7.10;;;;;;5013772;28;20796;-76
2023/02/08 11:44:01;;;;;;;8.77;5.63;;;7.00;4.50;;;;;;5014763;28;20400;-75
2023/02/08 11:46:28;;;;;;;11.70;6.57;;;7.10;5.70;;;;;;5014590;28;20421;-75
2023/02/08 11:48:55;;;;;;;11.10;6.03;;;7.10;5.10;;;;;;5015832;28;20435;-75
2023/02/08 11:51:35;;;;;;;11.35;6.35;;;7.00;4.60;;;;;;5014466;28;20457;-75
2023/02/08 11:54:01;;;;;;;15.93;7.95;;;7.00;4.40;;;;;;5014841;28;20436;-73
2023/02/08 11:56:29;;;;;;;13.13;6.97;;;7.00;7.40;;;;;;5015757;28;20472;-73
2023/02/08 11:59:01;;;;;;;13.63;6.70;;;7.10;7.00;;;;;;5015529;28;20533;-75
2023/02/08 12:01:32;;;;;;;18.35;7.20;;;7.10;7.60;;;;;;5014678;28;20439;-74
2023/02/08 12:04:01;;;;;;;10.98;6.20;;;7.40;4.60;;;;;;5015551;28;20739;-74
2023/02/08 12:06:56;;;;;;;13.07;7.20;;;7.50;5.30;;;;;;5014556;28;20388;-74
2023/02/08 12:09:59;;;;;;;10.98;6.10;;;7.50;5.40;;;;;;5014326;28;20447;-75
2023/02/08 12:12:38;;;;;;;9.40;6.50;;;7.40;2.80;;;;;;5013992;28;20369;-74
2023/02/08 12:15:28;;;;;;;8.43;5.70;;;7.50;4.00;;;;;;5015217;28;20404;-75
2023/02/08 12:18:18;;;;;;;8.20;5.93;;;7.40;4.80;;;;;;5015722;28;20464;-74
2023/02/08 12:20:45;;;;;;;9.88;5.78;;;7.50;4.30;;;;;;5016691;28;20389;-74
2023/02/08 12:23:26;;;;;;;11.60;6.40;;;7.40;3.30;;;;;;5026223;28;20405;-74
2023/02/08 12:26:16;;;;;;;8.68;5.85;;;7.30;3.70;;;;;;5023533;28;20389;-72
2023/02/08 12:29:05;;;;;;;15.07;5.95;;;7.40;3.00;;;;;;5031252;28;20761;-74
2023/02/08 12:31:42;;;;;;;8.23;5.60;;;7.50;2.60;;;;;;5041020;28;20388;-74
2023/02/08 12:34:30;;;;;;;9.52;5.50;;;7.40;2.20;;;;;;5041808;28;20400;-73
2023/02/08 12:40:51;;;;;;;10.02;6.15;;;7.30;5.10;;;;;;5014898;28;20476;-75
2023/02/08 12:43:47;;;;;;;12.50;6.30;;;7.50;5.00;;;;;;5014829;28;20459;-73
2023/02/08 12:46:37;;;;;;;11.15;6.50;;;7.40;4.50;;;;;;5016156;28;20419;-75
2023/02/08 12:49:31;;;;;;;14.85;6.10;;;7.50;4.90;;;;;;5015067;28;20408;-74
2023/02/08 12:52:14;;;;;;;12.18;7.10;;;7.70;4.80;;;;;;5015574;28;20381;-76
2023/02/08 12:55:05;;;;;;;11.65;6.30;;;7.60;4.00;;;;;;5013388;28;20381;-76
2023/02/08 12:57:31;;;;;;;9.38;6.07;;;7.60;3.70;;;;;;5013540;28;20396;-74
2023/02/08 13:00:35;;;;;;;10.18;6.10;;;7.60;3.30;;;;;;5013116;28;20422;-75
2023/02/08 13:03:40;;;;;;;13.30;6.60;;;7.60;4.40;;;;;;4982405;28;20969;-73
2023/02/08 13:06:11;;;;;;;15.88;6.00;;;7.70;3.20;;;;;;4995437;28;20400;-76